createdAt,value
2022-12-15T00:00:35.042Z,49.08
2022-12-15T00:03:43.001Z,48.61
2022-12-15T00:06:49.925Z,48.54
2022-12-15T00:09:57.048Z,48.63
2022-12-15T00:13:03.210Z,48.62
2022-12-15T00:16:09.679Z,48.40
2022-12-15T00:19:17.337Z,48.43
2022-12-15T00:22:24.466Z,48.38
2022-12-15T00:25:30.872Z,48.49
2022-12-15T00:28:37.234Z,48.59
2022-12-15T00:31:43.494Z,48.32
2022-12-15T00:34:51.026Z,48.66
2022-12-15T00:37:57.371Z,48.46
2022-12-15T00:40:45.919Z,48.44
2022-12-15T00:43:36.266Z,48.33
2022-12-15T00:46:42.846Z,48.58
2022-12-15T00:49:50.834Z,48.90
2022-12-15T00:52:57.058Z,48.65
2022-12-15T00:56:03.298Z,48.15
2022-12-15T00:59:09.706Z,48.68
2022-12-15T01:02:16.286Z,48.44
2022-12-15T01:05:25.215Z,48.48
2022-12-15T01:08:31.537Z,48.33
2022-12-15T01:11:37.819Z,48.27
2022-12-15T01:14:44.053Z,48.64
2022-12-15T01:17:50.064Z,48.81
2022-12-15T01:20:40.141Z,48.69
2022-12-15T01:23:29.254Z,48.32
2022-12-15T01:26:18.260Z,48.33
2022-12-15T01:29:06.910Z,48.65
2022-12-15T01:31:55.695Z,48.37
2022-12-15T01:34:44.414Z,48.43
2022-12-15T01:37:34.733Z,48.46
2022-12-15T01:40:41.296Z,48.50
2022-12-15T01:43:32.774Z,48.45
2022-12-15T01:46:22.893Z,48.17
2022-12-15T01:49:16.488Z,48.19
2022-12-15T01:52:09.058Z,48.18
2022-12-15T01:54:59.731Z,48.16
2022-12-15T01:57:49.146Z,48.13
2022-12-15T02:00:38.009Z,48.16
2022-12-15T02:03:26.731Z,48.27
2022-12-15T02:06:15.867Z,48.01
2022-12-15T02:09:05.190Z,48.15
2022-12-15T02:12:02.785Z,48.19
2022-12-15T02:15:04.767Z,48.00
2022-12-15T02:17:59.879Z,48.47
2022-12-15T02:20:54.974Z,48.27
2022-12-15T02:24:27.923Z,48.28
2022-12-15T02:27:46.024Z,48.42
2022-12-15T02:30:43.415Z,48.47
2022-12-15T02:33:34.525Z,48.43
2022-12-15T02:36:27.997Z,48.42
2022-12-15T02:39:16.797Z,48.27
2022-12-15T02:42:05.725Z,48.54
2022-12-15T02:44:56.598Z,48.15
2022-12-15T02:47:48.763Z,48.19
2022-12-15T02:50:58.254Z,48.65
2022-12-15T02:53:59.719Z,48.55
2022-12-15T02:56:54.792Z,48.24
2022-12-15T02:59:46.718Z,48.65
2022-12-15T03:02:37.702Z,48.37
2022-12-15T03:05:28.792Z,48.69
2022-12-15T03:08:17.539Z,48.31
2022-12-15T03:11:06.362Z,48.71
2022-12-15T03:13:55.678Z,48.45
2022-12-15T03:16:44.509Z,48.43
2022-12-15T03:19:33.209Z,48.42
2022-12-15T03:22:23.273Z,48.54
2022-12-15T03:25:11.928Z,48.55
2022-12-15T03:28:00.737Z,48.31
2022-12-15T03:30:51.438Z,48.45
2022-12-15T03:33:41.666Z,48.36
2022-12-15T03:36:30.288Z,48.29
2022-12-15T03:39:20.313Z,48.42
2022-12-15T03:42:08.849Z,48.25
2022-12-15T03:44:57.533Z,47.96
2022-12-15T03:47:46.695Z,48.48
2022-12-15T03:50:35.635Z,48.38
2022-12-15T03:53:24.259Z,48.30
2022-12-15T03:56:14.224Z,48.44
2022-12-15T03:59:02.844Z,48.19
2022-12-15T04:01:51.643Z,48.35
2022-12-15T04:04:40.291Z,48.21
2022-12-15T04:07:28.911Z,48.42
2022-12-15T04:10:17.758Z,47.98
2022-12-15T04:13:09.319Z,48.40
2022-12-15T04:15:57.913Z,48.26
2022-12-15T04:18:46.648Z,48.23
2022-12-15T04:21:34.246Z,48.32
2022-12-15T04:24:40.498Z,48.18
2022-12-15T04:27:46.873Z,48.40
2022-12-15T04:30:54.607Z,48.39
2022-12-15T04:34:04.922Z,48.24
2022-12-15T04:37:12.598Z,48.28
2022-12-15T04:40:18.814Z,48.45
2022-12-15T04:43:24.973Z,48.57
2022-12-15T04:46:32.682Z,48.40
2022-12-15T04:49:39.027Z,48.70
2022-12-15T04:52:45.517Z,48.58
2022-12-15T04:55:54.309Z,48.55
2022-12-15T04:59:00.569Z,48.59
2022-12-15T05:02:08.712Z,48.63
2022-12-15T05:05:15.008Z,48.52
2022-12-15T05:08:21.407Z,48.42
2022-12-15T05:11:27.756Z,48.10
2022-12-15T05:14:34.012Z,48.32
2022-12-15T05:17:42.123Z,47.65
2022-12-15T05:20:50.061Z,46.86
2022-12-15T05:23:56.581Z,45.40
2022-12-15T05:27:02.971Z,45.10
2022-12-15T05:30:09.158Z,45.48
2022-12-15T05:32:59.178Z,44.54
2022-12-15T05:35:47.776Z,44.37
2022-12-15T05:38:36.379Z,43.54
2022-12-15T05:41:25.114Z,42.76
2022-12-15T05:44:14.237Z,42.77
2022-12-15T05:47:02.951Z,42.28
2022-12-15T05:49:52.963Z,41.75
2022-12-15T05:52:46.221Z,40.22
2022-12-15T05:55:37.712Z,29.84
2022-12-15T05:58:26.481Z,27.69
2022-12-15T06:01:17.013Z,26.58
2022-12-15T06:04:05.927Z,29.57
2022-12-15T06:06:55.884Z,32.46
2022-12-15T06:09:44.488Z,33.95
2022-12-15T06:12:33.217Z,35.25
2022-12-15T06:15:21.966Z,36.32
2022-12-15T06:18:10.811Z,37.48
2022-12-15T06:21:00.281Z,37.98
2022-12-15T06:23:50.250Z,38.62
2022-12-15T06:26:40.387Z,39.01
2022-12-15T06:29:29.185Z,39.54
2022-12-15T06:32:17.876Z,39.79
2022-12-15T06:35:07.234Z,40.05
2022-12-15T06:37:55.903Z,40.50
2022-12-15T06:40:45.923Z,40.57
2022-12-15T06:43:35.555Z,41.13
2022-12-15T06:46:25.445Z,41.20
2022-12-15T06:49:14.497Z,41.25
2022-12-15T06:52:05.882Z,41.64
2022-12-15T06:54:54.555Z,41.96
2022-12-15T06:57:44.676Z,42.15
2022-12-15T07:00:36.643Z,42.07
2022-12-15T07:03:25.650Z,42.25
2022-12-15T07:06:16.465Z,42.32
2022-12-15T07:09:07.116Z,42.70
2022-12-15T07:11:55.758Z,42.71
2022-12-15T07:14:51.583Z,43.05
2022-12-15T07:17:42.081Z,42.71
2022-12-15T07:20:30.796Z,43.34
2022-12-15T07:23:34.245Z,43.24
2022-12-15T07:26:31.581Z,43.14
2022-12-15T07:29:23.429Z,42.78
2022-12-15T07:32:13.941Z,42.92
2022-12-15T07:35:05.401Z,42.93
2022-12-15T07:37:54.070Z,43.16
2022-12-15T07:40:42.730Z,43.06
2022-12-15T07:43:32.815Z,43.11
2022-12-15T07:46:21.957Z,43.15
2022-12-15T07:49:12.170Z,43.48
2022-12-15T07:52:00.826Z,43.59
2022-12-15T07:54:51.678Z,42.27
2022-12-15T07:57:40.599Z,43.12
2022-12-15T08:00:29.346Z,43.08
2022-12-15T08:03:18.102Z,43.32
2022-12-15T08:06:10.056Z,43.47
2022-12-15T08:08:58.659Z,43.83
2022-12-15T08:11:47.540Z,43.84
2022-12-15T08:14:36.970Z,44.26
2022-12-15T08:17:25.562Z,44.18
2022-12-15T08:20:15.263Z,44.40
2022-12-15T08:23:05.317Z,44.22
2022-12-15T08:25:53.869Z,44.45
2022-12-15T08:28:43.182Z,44.14
2022-12-15T08:31:33.060Z,44.30
2022-12-15T08:34:22.135Z,44.20
2022-12-15T08:37:10.978Z,44.12
2022-12-15T08:40:00.980Z,44.06
2022-12-15T08:42:49.792Z,44.16
2022-12-15T08:45:38.718Z,44.05
2022-12-15T08:48:27.435Z,44.26
2022-12-15T08:51:16.353Z,44.14
2022-12-15T08:54:05.149Z,44.34
2022-12-15T08:56:55.192Z,44.52
2022-12-15T08:59:44.073Z,44.19
2022-12-15T09:02:32.942Z,43.93
2022-12-15T09:05:21.662Z,44.13
2022-12-15T09:08:10.245Z,44.06
2022-12-15T09:10:59.519Z,44.22
2022-12-15T09:13:49.533Z,44.07
2022-12-15T09:16:38.413Z,43.96
2022-12-15T09:19:27.866Z,43.76
2022-12-15T09:22:16.503Z,43.95
2022-12-15T09:25:05.459Z,44.38
2022-12-15T09:27:54.109Z,44.52
2022-12-15T09:30:44.095Z,44.68
2022-12-15T09:33:33.274Z,44.68
2022-12-15T09:36:22.379Z,44.80
2022-12-15T09:39:12.356Z,44.84
2022-12-15T09:42:02.024Z,44.65
2022-12-15T09:44:52.252Z,44.62
2022-12-15T09:47:46.398Z,44.94
2022-12-15T09:50:38.413Z,44.67
2022-12-15T09:53:54.213Z,44.98
2022-12-15T09:56:49.897Z,45.12
2022-12-15T09:59:45.027Z,45.64
2022-12-15T10:03:22.619Z,45.58
2022-12-15T10:06:17.772Z,45.24
2022-12-15T10:09:18.272Z,45.47
2022-12-15T10:12:12.299Z,45.84
2022-12-15T10:15:10.162Z,45.80
2022-12-15T10:18:02.994Z,46.07
2022-12-15T10:20:54.974Z,46.10
2022-12-15T10:23:45.017Z,45.63
2022-12-15T10:26:39.046Z,45.84
2022-12-15T10:29:35.678Z,45.65
2022-12-15T10:32:29.678Z,45.76
2022-12-15T10:35:20.173Z,46.07
2022-12-15T10:38:26.535Z,45.64
2022-12-15T10:41:18.300Z,45.59
2022-12-15T10:44:30.275Z,45.67
2022-12-15T10:47:23.392Z,46.04
2022-12-15T10:53:41.336Z,45.64
2022-12-15T10:59:40.842Z,45.47
2022-12-15T11:02:36.838Z,45.76
2022-12-15T11:05:26.111Z,45.91
2022-12-15T11:08:17.408Z,46.21
2022-12-15T11:11:45.738Z,45.96
2022-12-15T11:14:45.784Z,45.96
2022-12-15T11:17:43.355Z,45.85
2022-12-15T11:20:35.231Z,45.80
2022-12-15T11:23:28.809Z,46.23
2022-12-15T11:26:26.748Z,46.24
2022-12-15T11:29:23.312Z,45.71
2022-12-15T11:32:13.626Z,46.05
2022-12-15T11:35:02.621Z,46.13
2022-12-15T11:37:53.775Z,46.12
2022-12-15T11:40:43.125Z,46.23
2022-12-15T11:44:00.956Z,46.03
2022-12-15T11:46:57.591Z,46.14
2022-12-15T11:50:16.303Z,46.00
2022-12-15T11:53:30.488Z,45.78
2022-12-15T11:56:26.144Z,45.87
2022-12-15T11:59:33.510Z,46.00
2022-12-15T12:02:42.470Z,46.17
2022-12-15T12:05:39.345Z,45.86
2022-12-15T12:08:43.975Z,46.07
2022-12-15T12:11:36.985Z,46.46
2022-12-15T12:14:36.093Z,45.85
2022-12-15T12:17:33.858Z,46.32
2022-12-15T12:20:24.287Z,46.07
2022-12-15T12:23:19.240Z,46.14
2022-12-15T12:26:12.334Z,45.78
2022-12-15T12:29:04.784Z,46.04
2022-12-15T12:32:04.480Z,46.05
2022-12-15T12:35:31.898Z,46.44
2022-12-15T12:38:12.495Z,46.16
2022-12-15T12:41:05.378Z,46.41
2022-12-15T12:43:58.143Z,46.49
2022-12-15T12:46:50.623Z,46.46
2022-12-15T12:49:43.166Z,46.30
2022-12-15T12:52:33.060Z,46.11
2022-12-15T12:55:29.014Z,46.68
2022-12-15T12:58:35.762Z,46.68
2022-12-15T13:01:28.703Z,46.59
2022-12-15T13:04:40.684Z,46.75
2022-12-15T13:07:31.750Z,46.73
2022-12-15T13:10:22.376Z,46.67
2022-12-15T13:13:18.270Z,46.58
2022-12-15T13:16:11.430Z,46.89
2022-12-15T13:19:05.107Z,46.81
2022-12-15T13:21:56.862Z,46.85
2022-12-15T13:24:50.357Z,46.80
2022-12-15T13:27:40.638Z,46.62
2022-12-15T13:30:29.438Z,46.60
2022-12-15T13:33:20.716Z,46.54
2022-12-15T13:36:09.285Z,46.53
2022-12-15T13:38:58.262Z,46.65
2022-12-15T13:42:38.390Z,46.46
2022-12-15T13:45:36.516Z,46.52
2022-12-15T13:48:33.571Z,46.62
2022-12-15T13:51:30.426Z,46.58
2022-12-15T13:54:21.920Z,46.52
2022-12-15T13:57:12.232Z,46.42
2022-12-15T14:00:05.145Z,46.06
2022-12-15T14:03:06.862Z,46.37
2022-12-15T14:05:58.845Z,46.41
2022-12-15T14:08:50.803Z,46.45
2022-12-15T14:11:53.128Z,46.26
2022-12-15T14:14:49.210Z,46.44
2022-12-15T14:17:38.322Z,46.54
2022-12-15T14:20:29.534Z,46.79
2022-12-15T14:23:23.682Z,40.07
2022-12-15T14:26:13.702Z,29.39
2022-12-15T14:29:06.787Z,27.93
2022-12-15T14:31:57.424Z,25.31
2022-12-15T14:34:50.914Z,25.15
2022-12-15T14:37:39.730Z,24.13
2022-12-15T14:40:30.306Z,24.86
2022-12-15T14:43:21.862Z,27.29
2022-12-15T14:46:12.866Z,30.59
2022-12-15T14:49:04.668Z,32.60
2022-12-15T14:51:55.061Z,33.50
2022-12-15T14:54:53.658Z,34.46
2022-12-15T14:57:51.939Z,35.51
2022-12-15T15:01:07.351Z,36.89
2022-12-15T15:03:04.146Z,45.88
2022-12-15T15:03:10.517Z,46.03
2022-12-15T15:04:00.194Z,37.22
2022-12-15T15:06:52.147Z,38.29
2022-12-15T15:09:45.443Z,38.48
2022-12-15T15:12:43.522Z,39.21
2022-12-15T15:15:33.658Z,39.21
2022-12-15T15:18:25.784Z,39.90
2022-12-15T15:21:18.484Z,39.79
2022-12-15T15:24:26.097Z,40.35
2022-12-15T15:27:31.244Z,40.59
2022-12-15T15:30:25.137Z,40.72
2022-12-15T15:33:15.506Z,40.97
2022-12-15T15:36:05.053Z,41.02
2022-12-15T15:38:53.747Z,40.85
2022-12-15T15:41:42.634Z,41.07
2022-12-15T15:44:32.441Z,41.20
2022-12-15T15:47:23.581Z,41.18
2022-12-15T15:50:16.912Z,41.38
2022-12-15T15:53:06.037Z,41.45
2022-12-15T15:55:55.649Z,41.73
2022-12-15T15:58:44.826Z,41.74
2022-12-15T16:01:33.572Z,41.62
2022-12-15T16:04:22.322Z,41.79
2022-12-15T16:07:20.193Z,41.62
2022-12-15T16:10:14.553Z,41.92
2022-12-15T16:13:03.755Z,41.91
2022-12-15T16:15:52.571Z,42.05
2022-12-15T16:18:41.383Z,42.25
2022-12-15T16:21:30.139Z,41.50
2022-12-15T16:24:20.576Z,41.61
2022-12-15T16:27:11.430Z,41.94
2022-12-15T16:30:00.517Z,42.43
2022-12-15T16:32:49.115Z,42.32
2022-12-15T16:35:38.252Z,42.27
2022-12-15T16:38:31.603Z,42.78
2022-12-15T16:41:23.272Z,42.62
2022-12-15T16:44:14.408Z,42.77
2022-12-15T16:47:03.067Z,43.35
2022-12-15T16:49:51.896Z,42.98
2022-12-15T16:52:40.891Z,43.06
2022-12-15T16:55:33.835Z,43.19
2022-12-15T16:58:27.872Z,43.33
2022-12-15T17:01:16.941Z,43.27
2022-12-15T17:04:06.012Z,43.50
2022-12-15T17:06:54.809Z,43.22
2022-12-15T17:09:43.586Z,43.36
2022-12-15T17:12:32.288Z,43.61
2022-12-15T17:15:24.784Z,43.47
2022-12-15T17:18:14.917Z,43.30
2022-12-15T17:21:06.292Z,43.80
2022-12-15T17:23:58.361Z,43.75
2022-12-15T17:26:47.316Z,43.78
2022-12-15T17:29:35.969Z,43.64
2022-12-15T17:32:25.986Z,43.46
2022-12-15T17:35:14.742Z,43.40
2022-12-15T17:38:06.430Z,43.84
2022-12-15T17:40:57.585Z,43.67
2022-12-15T17:43:49.065Z,44.10
2022-12-15T17:46:53.309Z,43.79
2022-12-15T17:49:43.379Z,44.19
2022-12-15T17:52:34.388Z,44.37
2022-12-15T17:55:30.329Z,44.48
2022-12-15T17:58:25.346Z,44.61
2022-12-15T18:01:15.047Z,44.13
2022-12-15T18:04:03.743Z,44.29
2022-12-15T18:06:59.692Z,44.22
2022-12-15T18:09:50.624Z,44.21
2022-12-15T18:12:39.351Z,43.95
2022-12-15T18:15:29.595Z,44.40
2022-12-15T18:18:19.097Z,44.23
2022-12-15T18:21:14.697Z,44.53
2022-12-15T18:24:05.198Z,44.88
2022-12-15T18:26:53.876Z,44.22
2022-12-15T18:29:42.525Z,44.45
2022-12-15T18:32:31.254Z,44.60
2022-12-15T18:35:23.669Z,44.45
2022-12-15T18:38:17.479Z,44.35
2022-12-15T18:41:07.957Z,43.94
2022-12-15T18:43:58.612Z,44.39
2022-12-15T18:46:50.338Z,44.08
2022-12-15T18:49:38.986Z,44.50
2022-12-15T18:52:32.992Z,44.50
2022-12-15T18:55:24.130Z,44.51
2022-12-15T18:58:22.431Z,44.46
2022-12-15T19:01:11.705Z,44.31
2022-12-15T19:04:00.351Z,44.44
2022-12-15T19:06:48.970Z,44.37
2022-12-15T19:09:37.757Z,44.48
2022-12-15T19:12:26.354Z,44.69
2022-12-15T19:15:18.998Z,44.30
2022-12-15T19:18:25.261Z,44.49
2022-12-15T19:21:34.897Z,45.07
2022-12-15T19:24:40.352Z,45.44
2022-12-15T19:27:29.028Z,45.40
2022-12-15T19:30:20.395Z,45.60
2022-12-15T19:33:09.486Z,45.42
2022-12-15T19:35:58.189Z,45.74
2022-12-15T19:38:47.516Z,45.73
2022-12-15T19:41:38.102Z,45.68
2022-12-15T19:44:27.533Z,46.00
2022-12-15T19:47:17.736Z,45.66
2022-12-15T19:50:06.969Z,45.29
2022-12-15T19:53:01.157Z,44.90
2022-12-15T19:55:50.010Z,45.70
2022-12-15T19:58:38.752Z,45.46
2022-12-15T20:01:27.542Z,46.04
2022-12-15T20:04:22.382Z,45.21
2022-12-15T20:07:17.720Z,44.73
2022-12-15T20:10:08.728Z,45.37
2022-12-15T20:12:58.546Z,44.78
2022-12-15T20:15:47.363Z,44.66
2022-12-15T20:18:36.209Z,44.52
2022-12-15T20:21:31.371Z,44.56
2022-12-15T20:24:21.336Z,44.67
2022-12-15T20:27:14.129Z,44.49
2022-12-15T20:30:02.751Z,44.73
2022-12-15T20:32:55.671Z,44.08
2022-12-15T20:35:45.550Z,43.75
2022-12-15T20:38:35.881Z,43.37
2022-12-15T20:41:26.304Z,43.22
2022-12-15T20:44:15.095Z,43.08
2022-12-15T20:47:03.696Z,42.92
2022-12-15T20:49:54.749Z,43.14
2022-12-15T20:52:43.542Z,43.63
2022-12-15T20:55:33.984Z,43.77
2022-12-15T20:58:27.058Z,44.17
2022-12-15T21:01:20.460Z,44.21
2022-12-15T21:04:21.522Z,44.26
2022-12-15T21:07:12.053Z,44.40
2022-12-15T21:10:00.709Z,44.68
2022-12-15T21:12:51.559Z,44.78
2022-12-15T21:15:40.127Z,44.72
2022-12-15T21:19:03.956Z,45.03
2022-12-15T21:21:39.128Z,45.18
2022-12-15T21:24:29.138Z,45.33
2022-12-15T21:27:17.801Z,45.27
2022-12-15T21:30:17.003Z,44.99
2022-12-15T21:33:05.717Z,44.55
2022-12-15T21:35:54.829Z,44.72
2022-12-15T21:38:44.290Z,44.93
2022-12-15T21:41:33.641Z,45.59
2022-12-15T21:44:22.386Z,44.97
2022-12-15T21:47:24.553Z,45.16
2022-12-15T21:50:12.222Z,45.31
2022-12-15T21:53:01.339Z,44.94
2022-12-15T21:55:49.972Z,45.14
2022-12-15T21:58:38.976Z,44.91
2022-12-15T22:01:31.122Z,45.61
2022-12-15T22:04:22.950Z,45.67
2022-12-15T22:07:12.267Z,46.04
2022-12-15T22:10:00.894Z,45.30
2022-12-15T22:12:58.988Z,45.26
2022-12-15T22:15:48.971Z,45.05
2022-12-15T22:18:37.703Z,45.40
2022-12-15T22:21:28.103Z,45.25
2022-12-15T22:24:19.144Z,44.96
2022-12-15T22:27:08.035Z,44.61
2022-12-15T22:29:57.393Z,44.59
2022-12-15T22:32:46.343Z,44.66
2022-12-15T22:35:34.951Z,44.95
2022-12-15T22:38:25.631Z,45.44
2022-12-15T22:41:19.491Z,46.11
2022-12-15T22:44:15.436Z,45.77
2022-12-15T22:47:04.905Z,46.13
2022-12-15T22:49:53.601Z,46.09
2022-12-15T22:52:45.553Z,46.58
2022-12-15T22:55:35.530Z,46.17
2022-12-15T22:58:26.394Z,46.77
2022-12-15T23:01:15.176Z,46.73
2022-12-15T23:04:04.016Z,46.57
2022-12-15T23:06:54.925Z,46.97
2022-12-15T23:09:43.613Z,46.41
2022-12-15T23:12:32.675Z,46.73
2022-12-15T23:15:38.845Z,46.87
2022-12-15T23:18:27.450Z,46.69
2022-12-15T23:21:16.045Z,46.72
2022-12-15T23:24:04.728Z,46.54
2022-12-15T23:26:53.612Z,46.86
2022-12-15T23:29:43.628Z,47.16
2022-12-15T23:32:33.344Z,46.65
2022-12-15T23:35:21.961Z,46.97
2022-12-15T23:38:10.557Z,47.05
2022-12-15T23:40:59.759Z,47.09
2022-12-15T23:43:48.635Z,47.01
2022-12-15T23:46:38.709Z,47.05
2022-12-15T23:49:27.485Z,47.27
2022-12-15T23:52:17.876Z,47.42
2022-12-15T23:55:09.931Z,47.24
2022-12-15T23:57:59.075Z,47.39
